createdAt,value
2022-11-18T00:01:22.916Z,96721.69
2022-11-18T00:03:53.004Z,96724.91
2022-11-18T00:06:26.680Z,96724.19
2022-11-18T00:08:55.648Z,96725.28
2022-11-18T00:11:45.078Z,96718.56
2022-11-18T00:14:19.167Z,96713.31
2022-11-18T00:16:51.027Z,96710.53
2022-11-18T00:19:21.135Z,96707.97
2022-11-18T00:21:49.761Z,96705.28
2022-11-18T00:24:18.153Z,96711.19
2022-11-18T00:26:46.734Z,96706.69
2022-11-18T00:29:14.485Z,96703.19
2022-11-18T00:31:42.615Z,96709.34
2022-11-18T00:34:13.867Z,96711.47
2022-11-18T00:36:43.053Z,96706.03
2022-11-18T00:39:13.459Z,96711.09
2022-11-18T00:42:00.825Z,96711.94
2022-11-18T00:44:28.189Z,96721.63
2022-11-18T00:46:56.125Z,96722.72
2022-11-18T00:49:24.470Z,96722.50
2022-11-18T00:51:52.170Z,96720.31
2022-11-18T00:54:19.806Z,96722.06
2022-11-18T00:56:47.364Z,96733.47
2022-11-18T00:59:14.667Z,96727.84
2022-11-18T01:01:42.275Z,96731.13
2022-11-18T01:04:09.468Z,96720.66
2022-11-18T01:06:36.884Z,96718.91
2022-11-18T01:09:04.336Z,96716.59
2022-11-18T01:11:50.365Z,96715.88
2022-11-18T01:14:18.127Z,96704.34
2022-11-18T01:16:51.119Z,96701.84
2022-11-18T01:19:19.334Z,96703.91
2022-11-18T01:21:47.518Z,96706.56
2022-11-18T01:24:14.846Z,96691.38
2022-11-18T01:26:42.586Z,96689.47
2022-11-18T01:29:10.394Z,96689.91
2022-11-18T01:31:50.178Z,96690.16
2022-11-18T01:34:29.431Z,96685.19
2022-11-18T01:36:58.624Z,96671.75
2022-11-18T01:39:26.258Z,96667.69
2022-11-18T01:41:53.774Z,96666.03
2022-11-18T01:44:58.501Z,96665.41
2022-11-18T01:47:40.923Z,96659.91
2022-11-18T01:50:09.811Z,96662.13
2022-11-18T01:52:40.225Z,96653.19
2022-11-18T01:55:24.060Z,96653.00
2022-11-18T01:57:59.492Z,96647.00
2022-11-18T02:00:26.647Z,96650.31
2022-11-18T02:02:54.485Z,96650.53
2022-11-18T02:05:22.789Z,96657.59
2022-11-18T02:07:51.458Z,96655.47
2022-11-18T02:10:23.775Z,96658.34
2022-11-18T02:12:54.417Z,96652.13
2022-11-18T02:15:45.420Z,96644.66
2022-11-18T02:18:56.731Z,96654.97
2022-11-18T02:21:32.285Z,96652.38
2022-11-18T02:24:27.320Z,96643.34
2022-11-18T02:27:58.240Z,96642.44
2022-11-18T02:30:26.423Z,96649.06
2022-11-18T02:33:10.371Z,96643.47
2022-11-18T02:35:46.915Z,96655.53
2022-11-18T02:38:31.361Z,96649.28
2022-11-18T02:41:08.160Z,96656.06
2022-11-18T02:43:46.137Z,96643.47
2022-11-18T02:46:24.012Z,96658.03
2022-11-18T02:48:54.330Z,96656.34
2022-11-18T02:51:28.536Z,96665.00
2022-11-18T02:54:02.971Z,96654.97
2022-11-18T02:56:33.135Z,96665.47
2022-11-18T02:59:00.325Z,96664.91
2022-11-18T03:01:32.578Z,96663.31
2022-11-18T03:04:00.357Z,96658.78
2022-11-18T03:06:55.937Z,96660.06
2022-11-18T03:09:38.274Z,96653.88
2022-11-18T03:12:18.848Z,96648.09
2022-11-18T03:15:04.734Z,96646.06
2022-11-18T03:18:28.400Z,96646.66
2022-11-18T03:21:08.700Z,96641.56
2022-11-18T03:23:52.129Z,96645.81
2022-11-18T03:26:36.288Z,96640.94
2022-11-18T03:29:18.983Z,96642.38
2022-11-18T03:31:56.929Z,96639.34
2022-11-18T03:34:49.611Z,96630.72
2022-11-18T03:37:21.073Z,96628.50
2022-11-18T03:39:59.300Z,96632.00
2022-11-18T03:42:42.707Z,96629.03
2022-11-18T03:45:25.330Z,96634.72
2022-11-18T03:48:04.113Z,96627.25
2022-11-18T03:50:40.722Z,96625.25
2022-11-18T03:53:09.917Z,96625.22
2022-11-18T03:55:44.758Z,96623.81
2022-11-18T03:59:08.076Z,96620.16
2022-11-18T04:01:56.255Z,96620.47
2022-11-18T04:04:27.141Z,96615.94
2022-11-18T04:07:27.156Z,96614.22
2022-11-18T04:10:09.079Z,96615.22
2022-11-18T04:12:46.082Z,96612.47
2022-11-18T04:15:13.329Z,96599.31
2022-11-18T04:17:43.162Z,96595.63
2022-11-18T04:20:21.752Z,96587.06
2022-11-18T04:22:49.457Z,96595.00
2022-11-18T04:25:17.148Z,96592.63
2022-11-18T04:27:44.614Z,96589.00
2022-11-18T04:30:12.715Z,96600.22
2022-11-18T04:32:42.295Z,96592.41
2022-11-18T04:35:09.536Z,96584.97
2022-11-18T04:37:37.045Z,96583.94
2022-11-18T04:40:05.274Z,96589.28
2022-11-18T04:42:32.946Z,96593.81
2022-11-18T04:45:00.204Z,96605.03
2022-11-18T04:47:27.658Z,96606.94
2022-11-18T04:49:54.790Z,96604.91
2022-11-18T04:52:22.413Z,96609.34
2022-11-18T04:54:49.633Z,96609.00
2022-11-18T04:57:17.100Z,96617.97
2022-11-18T04:59:44.241Z,96620.38
2022-11-18T05:02:12.760Z,96618.06
2022-11-18T05:04:40.022Z,96612.19
2022-11-18T05:07:08.040Z,96610.25
2022-11-18T05:09:35.325Z,96602.34
2022-11-18T05:12:21.260Z,96601.97
2022-11-18T05:14:50.896Z,96595.06
2022-11-18T05:17:19.465Z,96595.53
2022-11-18T05:19:46.708Z,96597.94
2022-11-18T05:22:15.800Z,96603.19
2022-11-18T05:24:42.951Z,96605.19
2022-11-18T05:27:11.774Z,96603.72
2022-11-18T05:29:38.908Z,96602.06
2022-11-18T05:32:06.476Z,96604.47
2022-11-18T05:34:33.583Z,96608.75
2022-11-18T05:37:01.064Z,96615.41
2022-11-18T05:39:28.238Z,96615.63
2022-11-18T05:42:13.957Z,96626.28
2022-11-18T05:44:41.116Z,96628.13
2022-11-18T05:47:08.697Z,96637.69
2022-11-18T05:49:35.874Z,96637.97
2022-11-18T05:52:03.570Z,96640.91
2022-11-18T05:54:31.720Z,96645.44
2022-11-18T05:56:59.241Z,96642.34
2022-11-18T05:59:26.922Z,96639.59
2022-11-18T06:02:13.121Z,96641.34
2022-11-18T06:04:54.898Z,96647.41
2022-11-18T06:07:41.882Z,96653.84
2022-11-18T06:10:17.791Z,96653.94
2022-11-18T06:12:49.847Z,96649.88
2022-11-18T06:15:26.249Z,96651.03
2022-11-18T06:18:23.324Z,96661.75
2022-11-18T06:20:59.753Z,96662.53
2022-11-18T06:23:35.718Z,96663.13
2022-11-18T06:26:03.812Z,96663.22
2022-11-18T06:28:31.714Z,96675.47
2022-11-18T06:30:59.193Z,96674.09
2022-11-18T06:33:26.647Z,96675.47
2022-11-18T06:35:53.770Z,96679.63
2022-11-18T06:38:25.138Z,96682.47
2022-11-18T06:40:52.566Z,96687.81
2022-11-18T06:43:38.681Z,96685.72
2022-11-18T06:46:27.462Z,96675.41
2022-11-18T06:48:55.006Z,96685.88
2022-11-18T06:51:22.345Z,96675.03
2022-11-18T06:53:50.218Z,96685.72
2022-11-18T06:56:20.316Z,96697.97
2022-11-18T06:58:52.517Z,96695.78
2022-11-18T07:01:23.609Z,96704.63
2022-11-18T07:03:52.225Z,96700.75
2022-11-18T07:06:32.243Z,96712.97
2022-11-18T07:09:07.175Z,96702.44
2022-11-18T07:11:34.901Z,96705.81
2022-11-18T07:14:02.643Z,96704.25
2022-11-18T07:16:30.191Z,96696.69
2022-11-18T07:18:57.807Z,96691.56
2022-11-18T07:21:29.074Z,96691.38
2022-11-18T07:23:57.235Z,96693.41
2022-11-18T07:26:24.917Z,96693.59
2022-11-18T07:28:53.898Z,96688.34
2022-11-18T07:31:21.484Z,96682.53
2022-11-18T07:33:50.019Z,96681.44
2022-11-18T07:36:24.527Z,96676.31
2022-11-18T07:38:53.100Z,96673.94
2022-11-18T07:41:27.074Z,96668.59
2022-11-18T07:44:00.538Z,96665.00
2022-11-18T07:46:33.002Z,96667.13
2022-11-18T07:49:04.056Z,96666.94
2022-11-18T07:51:38.221Z,96673.75
2022-11-18T07:54:12.004Z,96682.38
2022-11-18T07:56:39.415Z,96676.59
2022-11-18T07:59:07.835Z,96679.06
2022-11-18T08:01:35.311Z,96680.66
2022-11-18T08:04:13.129Z,96688.66
2022-11-18T08:06:41.246Z,96678.88
2022-11-18T08:09:09.654Z,96683.47
2022-11-18T08:11:37.780Z,96688.47
2022-11-18T08:14:05.545Z,96695.63
2022-11-18T08:16:32.717Z,96695.38
2022-11-18T08:19:01.014Z,96698.22
2022-11-18T08:21:28.701Z,96701.06
2022-11-18T08:23:58.198Z,96697.00
2022-11-18T08:26:26.589Z,96706.31
2022-11-18T08:28:54.599Z,96707.25
2022-11-18T08:31:28.892Z,96707.97
2022-11-18T08:34:02.847Z,96705.53
2022-11-18T08:36:33.808Z,96713.13
2022-11-18T08:39:04.748Z,96706.31
2022-11-18T08:41:35.621Z,96714.56
2022-11-18T08:44:05.504Z,96709.78
2022-11-18T08:46:33.491Z,96710.53
2022-11-18T08:49:01.462Z,96718.28
2022-11-18T08:51:29.236Z,96725.66
2022-11-18T08:53:57.335Z,96719.81
2022-11-18T08:56:25.851Z,96711.72
2022-11-18T08:58:53.791Z,96713.13
2022-11-18T09:01:21.237Z,96720.41
2022-11-18T09:03:49.551Z,96723.03
2022-11-18T09:06:20.424Z,96720.84
2022-11-18T09:08:48.595Z,96728.53
2022-11-18T09:11:19.293Z,96722.03
2022-11-18T09:14:32.740Z,96718.84
2022-11-18T09:16:35.933Z,96723.53
2022-11-18T09:19:31.590Z,96724.03
2022-11-18T09:21:52.087Z,96718.69
2022-11-18T09:24:19.819Z,96723.84
2022-11-18T09:26:48.316Z,96728.22
2022-11-18T09:29:15.602Z,96722.22
2022-11-18T09:31:43.086Z,96726.44
2022-11-18T09:34:10.545Z,96720.44
2022-11-18T09:36:38.208Z,96723.56
2022-11-18T09:39:05.656Z,96724.56
2022-11-18T09:41:52.287Z,96721.44
2022-11-18T09:45:19.408Z,96723.13
2022-11-18T09:47:51.694Z,96725.03
2022-11-18T09:53:23.806Z,96719.38
2022-11-18T09:55:52.658Z,96723.63
2022-11-18T09:58:28.083Z,96725.56
2022-11-18T10:00:55.367Z,96726.78
2022-11-18T10:03:32.730Z,96726.03
2022-11-18T10:06:27.650Z,96741.94
2022-11-18T10:09:11.094Z,96744.34
2022-11-18T10:12:05.182Z,96750.88
2022-11-18T10:14:57.364Z,96746.81
2022-11-18T10:17:53.442Z,96752.34
2022-11-18T10:20:44.957Z,96753.00
2022-11-18T10:23:50.449Z,96755.50
2022-11-18T10:26:38.482Z,96752.00
2022-11-18T10:29:10.256Z,96750.78
2022-11-18T10:31:40.806Z,96746.06
2022-11-18T10:34:13.855Z,96743.03
2022-11-18T10:36:41.374Z,96752.44
2022-11-18T10:39:15.093Z,96750.31
2022-11-18T10:41:49.797Z,96752.16
2022-11-18T10:44:39.544Z,96743.94
2022-11-18T10:47:27.441Z,96750.31
2022-11-18T10:49:59.915Z,96758.41
2022-11-18T10:52:30.054Z,96750.69
2022-11-18T10:55:18.434Z,96759.06
2022-11-18T10:57:47.650Z,96756.38
2022-11-18T11:00:38.280Z,96756.94
2022-11-18T11:03:37.874Z,96752.16
2022-11-18T11:06:21.324Z,96756.31
2022-11-18T11:09:10.189Z,96759.59
2022-11-18T11:11:57.199Z,96759.59
2022-11-18T11:14:52.412Z,96759.34
2022-11-18T11:17:30.570Z,96755.75
2022-11-18T11:20:04.393Z,96746.91
2022-11-18T11:22:32.958Z,96754.66
2022-11-18T11:25:00.537Z,96757.88
2022-11-18T11:28:16.670Z,96758.81
2022-11-18T11:31:12.836Z,96756.06
2022-11-18T11:33:52.815Z,96754.38
2022-11-18T11:36:57.551Z,96755.75
2022-11-18T11:39:59.788Z,96755.31
2022-11-18T11:42:54.103Z,96744.69
2022-11-18T11:46:13.329Z,96755.75
2022-11-18T11:48:56.879Z,96747.00
2022-11-18T11:51:58.284Z,96736.69
2022-11-18T11:54:38.032Z,96743.41
2022-11-18T11:57:33.450Z,96742.31
2022-11-18T12:00:09.379Z,96752.16
2022-11-18T12:03:34.849Z,96745.25
2022-11-18T12:06:02.358Z,96750.06
2022-11-18T12:08:32.624Z,96752.16
2022-11-18T12:11:25.901Z,96751.44
2022-11-18T12:14:25.969Z,96748.09
2022-11-18T12:17:25.108Z,96751.91
2022-11-18T12:19:52.364Z,96757.22
2022-11-18T12:22:19.829Z,96756.00
2022-11-18T12:24:46.975Z,96763.13
2022-11-18T12:27:30.441Z,96762.59
2022-11-18T12:30:02.128Z,96767.75
2022-11-18T12:32:46.702Z,96766.38
2022-11-18T12:35:13.946Z,96767.28
2022-11-18T12:37:52.178Z,96768.00
2022-11-18T12:40:50.612Z,96776.63
2022-11-18T12:43:44.505Z,96781.06
2022-11-18T12:46:34.909Z,96779.38
2022-11-18T12:49:22.654Z,96783.38
2022-11-18T12:52:15.015Z,96778.47
2022-11-18T12:54:49.236Z,96777.72
2022-11-18T12:57:32.403Z,96775.41
2022-11-18T13:00:17.188Z,96781.66
2022-11-18T13:03:00.427Z,96776.38
2022-11-18T13:05:32.912Z,96773.66
2022-11-18T13:08:13.883Z,96769.44
2022-11-18T13:11:37.319Z,96784.03
2022-11-18T13:14:32.541Z,96786.75
2022-11-18T13:17:18.855Z,96783.03
2022-11-18T13:19:57.761Z,96787.09
2022-11-18T13:22:44.021Z,96785.59
2022-11-18T13:25:33.626Z,96791.50
2022-11-18T13:28:31.879Z,96789.25
2022-11-18T13:31:07.407Z,96792.00
2022-11-18T13:33:38.607Z,96797.75
2022-11-18T13:36:25.903Z,96803.91
2022-11-18T13:39:03.384Z,96805.22
2022-11-18T13:41:34.325Z,96807.38
2022-11-18T13:44:24.267Z,96822.72
2022-11-18T13:47:16.033Z,96821.25
2022-11-18T13:50:11.696Z,96824.63
2022-11-18T13:53:09.308Z,96824.88
2022-11-18T13:55:54.221Z,96825.19
2022-11-18T14:01:34.861Z,96837.50
2022-11-18T14:04:22.589Z,96839.47
2022-11-18T14:06:50.775Z,96838.22
2022-11-18T14:09:27.178Z,96845.69
2022-11-18T14:11:57.796Z,96840.66
2022-11-18T14:14:43.671Z,96835.25
2022-11-18T14:17:23.966Z,96838.69
2022-11-18T14:19:55.420Z,96850.81
2022-11-18T14:22:27.166Z,96852.16
2022-11-18T14:25:17.304Z,96856.88
2022-11-18T14:27:54.696Z,96854.50
2022-11-18T14:30:32.348Z,96857.59
2022-11-18T14:33:31.692Z,96855.25
2022-11-18T14:36:13.505Z,96842.75
2022-11-18T14:39:31.672Z,96853.78
2022-11-18T14:41:48.673Z,96854.28
2022-11-18T14:44:18.822Z,96863.75
2022-11-18T14:47:03.746Z,96865.63
2022-11-18T14:49:32.998Z,96871.31
2022-11-18T14:52:04.711Z,96875.16
2022-11-18T14:54:33.050Z,96874.84
2022-11-18T14:57:05.657Z,96882.97
2022-11-18T14:59:33.507Z,96878.00
2022-11-18T15:02:00.996Z,96889.41
2022-11-18T15:04:28.632Z,96896.97
2022-11-18T15:06:56.274Z,96904.09
2022-11-18T15:09:24.932Z,96903.53
2022-11-18T15:11:52.169Z,96906.03
2022-11-18T15:14:19.827Z,96913.28
2022-11-18T15:16:47.198Z,96917.97
2022-11-18T15:19:16.526Z,96911.91
2022-11-18T15:21:45.680Z,96912.09
2022-11-18T15:24:13.710Z,96908.31
2022-11-18T15:26:46.902Z,96915.09
2022-11-18T15:29:24.314Z,96912.28
2022-11-18T15:31:51.952Z,96916.19
2022-11-18T15:34:21.283Z,96926.84
2022-11-18T15:36:49.843Z,96926.97
2022-11-18T15:39:17.476Z,96921.75
2022-11-18T15:41:44.753Z,96915.25
2022-11-18T15:44:13.331Z,96918.88
2022-11-18T15:46:40.881Z,96929.78
2022-11-18T15:49:14.670Z,96931.63
2022-11-18T15:51:42.233Z,96932.47
2022-11-18T15:54:09.935Z,96939.72
2022-11-18T15:56:38.505Z,96928.94
2022-11-18T15:59:17.624Z,96937.28
2022-11-18T16:01:49.173Z,96930.06
2022-11-18T16:04:19.417Z,96941.16
2022-11-18T16:06:47.793Z,96943.88
2022-11-18T16:09:17.541Z,96941.91
2022-11-18T16:12:03.513Z,96937.22
2022-11-18T16:14:31.057Z,96940.78
2022-11-18T16:16:58.420Z,96932.63
2022-11-18T16:19:27.453Z,96944.22
2022-11-18T16:21:57.214Z,96943.38
2022-11-18T16:24:28.988Z,96941.00
2022-11-18T16:26:57.413Z,96951.75
2022-11-18T16:29:25.344Z,96954.03
2022-11-18T16:34:41.851Z,96967.56
2022-11-18T16:37:09.297Z,96972.41
2022-11-18T16:39:36.770Z,96968.53
2022-11-18T16:40:28.340Z,96963.78
2022-11-18T16:42:08.640Z,96970.28
2022-11-18T16:44:37.803Z,96987.81
2022-11-18T16:47:13.763Z,96987.44
2022-11-18T16:49:43.391Z,96992.50
2022-11-18T16:52:10.704Z,96995.81
2022-11-18T16:54:44.692Z,96998.09
2022-11-18T16:57:13.829Z,96983.75
2022-11-18T16:59:41.608Z,96987.16
2022-11-18T17:02:13.416Z,96996.16
2022-11-18T17:04:41.373Z,96998.00
2022-11-18T17:07:08.692Z,96998.25
2022-11-18T17:09:37.883Z,97003.38
2022-11-18T17:12:05.673Z,97000.81
2022-11-18T17:14:33.199Z,97006.56
2022-11-18T17:17:00.456Z,97009.34
2022-11-18T17:19:27.946Z,97011.38
2022-11-18T17:21:55.111Z,97007.25
2022-11-18T17:24:24.146Z,97004.78
2022-11-18T17:26:52.783Z,97005.34
2022-11-18T17:29:21.216Z,97007.25
2022-11-18T17:31:49.123Z,97007.78
2022-11-18T17:34:17.110Z,97019.56
2022-11-18T17:36:44.867Z,97010.88
2022-11-18T17:39:13.482Z,97017.00
2022-11-18T17:41:59.405Z,97017.53
2022-11-18T17:44:28.568Z,97020.03
2022-11-18T17:46:56.048Z,97027.66
2022-11-18T17:49:23.856Z,97033.03
2022-11-18T17:51:51.747Z,97029.38
2022-11-18T17:54:21.286Z,97040.41
2022-11-18T17:56:52.340Z,97038.63
2022-11-18T17:59:20.911Z,97031.47
2022-11-18T18:01:49.918Z,97026.47
2022-11-18T18:04:21.549Z,97034.78
2022-11-18T18:06:51.323Z,97034.75
2022-11-18T18:09:21.815Z,97030.63
2022-11-18T18:11:52.578Z,97035.84
2022-11-18T18:14:20.387Z,97038.91
2022-11-18T18:16:50.930Z,97038.34
2022-11-18T18:19:23.787Z,97040.63
2022-11-18T18:21:51.093Z,97041.75
2022-11-18T18:24:20.964Z,97048.34
2022-11-18T18:26:49.089Z,97040.16
2022-11-18T18:29:16.700Z,97044.31
2022-11-18T18:31:50.635Z,97044.13
2022-11-18T18:34:18.741Z,97051.13
2022-11-18T18:36:46.354Z,97049.63
2022-11-18T18:39:13.897Z,97052.88
2022-11-18T18:41:41.153Z,97060.66
2022-11-18T18:44:10.430Z,97053.94
2022-11-18T18:46:40.930Z,97061.22
2022-11-18T18:49:20.492Z,97065.78
2022-11-18T18:51:55.571Z,97063.44
2022-11-18T18:54:23.249Z,97063.72
2022-11-18T18:56:50.527Z,97069.75
2022-11-18T18:59:18.059Z,97072.09
2022-11-18T19:01:45.579Z,97077.16
2022-11-18T19:04:14.385Z,97085.09
2022-11-18T19:06:54.934Z,97090.38
2022-11-18T19:09:26.306Z,97084.09
2022-11-18T19:12:12.766Z,97091.06
2022-11-18T19:14:40.621Z,97093.38
2022-11-18T19:17:12.650Z,97088.69
2022-11-18T19:20:01.084Z,97082.59
2022-11-18T19:22:33.427Z,97090.22
2022-11-18T19:25:01.787Z,97094.53
2022-11-18T19:27:30.253Z,97092.44
2022-11-18T19:29:58.495Z,97095.22
2022-11-18T19:32:25.985Z,97092.56
2022-11-18T19:34:53.464Z,97087.38
2022-11-18T19:37:20.809Z,97098.19
2022-11-18T19:39:48.517Z,97100.69
2022-11-18T19:42:15.912Z,97096.25
2022-11-18T19:44:43.479Z,97109.72
2022-11-18T19:47:11.020Z,97107.50
2022-11-18T19:49:38.550Z,97104.81
2022-11-18T19:52:05.789Z,97097.28
2022-11-18T19:54:33.419Z,97094.53
2022-11-18T19:57:03.949Z,97097.78
2022-11-18T19:59:31.715Z,97096.88
2022-11-18T20:01:59.187Z,97105.16
2022-11-18T20:04:26.886Z,97111.34
2022-11-18T20:06:54.281Z,97110.28
2022-11-18T20:09:21.966Z,97101.25
2022-11-18T20:11:49.572Z,97108.69
2022-11-18T20:14:17.660Z,97112.72
2022-11-18T20:16:44.929Z,97118.69
2022-11-18T20:19:13.766Z,97111.88
2022-11-18T20:21:43.469Z,97128.16
2022-11-18T20:24:17.111Z,97127.09
2022-11-18T20:26:45.355Z,97130.34
2022-11-18T20:29:13.584Z,97140.63
2022-11-18T20:31:41.699Z,97147.84
2022-11-18T20:34:14.487Z,97141.81
2022-11-18T20:36:42.341Z,97147.00
2022-11-18T20:39:15.517Z,97150.03
2022-11-18T20:41:43.711Z,97133.81
2022-11-18T20:44:11.216Z,97132.31
2022-11-18T20:46:38.431Z,97137.63
2022-11-18T20:49:05.934Z,97135.91
2022-11-18T20:51:33.188Z,97136.03
2022-11-18T20:54:00.794Z,97143.25
2022-11-18T20:56:28.619Z,97148.31
2022-11-18T20:58:59.105Z,97162.50
2022-11-18T21:01:29.710Z,97157.09
2022-11-18T21:04:01.139Z,97152.84
2022-11-18T21:06:31.694Z,97146.97
2022-11-18T21:09:02.806Z,97152.22
2022-11-18T21:11:34.725Z,97163.13
2022-11-18T21:14:23.970Z,97177.50
2022-11-18T21:16:55.649Z,97174.81
2022-11-18T21:19:23.771Z,97158.56
2022-11-18T21:21:53.910Z,97167.88
2022-11-18T21:24:31.071Z,97173.41
2022-11-18T21:26:59.863Z,97177.66
2022-11-18T21:29:30.736Z,97182.72
2022-11-18T21:32:02.267Z,97183.53
2022-11-18T21:34:30.452Z,97192.72
2022-11-18T21:36:58.218Z,97203.31
2022-11-18T21:39:26.039Z,97206.06
2022-11-18T21:41:56.790Z,97192.41
2022-11-18T21:44:28.419Z,97189.66
2022-11-18T21:46:56.494Z,97191.44
2022-11-18T21:49:24.033Z,97200.81
2022-11-18T21:51:51.244Z,97202.41
2022-11-18T21:54:18.782Z,97204.09
2022-11-18T21:56:46.042Z,97214.03
2022-11-18T21:59:14.030Z,97208.66
2022-11-18T22:01:41.201Z,97214.28
2022-11-18T22:04:29.115Z,97209.91
2022-11-18T22:06:56.383Z,97212.63
2022-11-18T22:09:23.941Z,97201.72
2022-11-18T22:11:51.057Z,97204.34
2022-11-18T22:14:18.542Z,97207.88
2022-11-18T22:16:45.726Z,97205.47
2022-11-18T22:19:13.155Z,97208.94
2022-11-18T22:21:40.321Z,97212.13
2022-11-18T22:24:08.532Z,97221.50
2022-11-18T22:26:35.686Z,97223.16
2022-11-18T22:29:03.396Z,97232.66
2022-11-18T22:31:30.754Z,97238.53
2022-11-18T22:33:58.246Z,97233.94
2022-11-18T22:36:26.919Z,97244.03
2022-11-18T22:38:55.913Z,97235.78
2022-11-18T22:41:45.344Z,97242.03
2022-11-18T22:44:16.269Z,97246.91
2022-11-18T22:46:45.291Z,97236.50
2022-11-18T22:49:13.860Z,97239.66
2022-11-18T22:51:41.412Z,97239.91
2022-11-18T22:54:37.037Z,97238.81
2022-11-18T22:56:57.260Z,97242.97
2022-11-18T22:59:25.421Z,97250.75
2022-11-18T23:01:53.064Z,97248.91
2022-11-18T23:04:21.578Z,97246.53
2022-11-18T23:06:49.948Z,97258.09
2022-11-18T23:09:17.943Z,97246.16
2022-11-18T23:12:04.348Z,97254.31
2022-11-18T23:14:31.931Z,97252.31
2022-11-18T23:16:59.649Z,97260.41
2022-11-18T23:19:27.110Z,97265.91
2022-11-18T23:21:54.230Z,97262.44
2022-11-18T23:24:21.929Z,97264.88
2022-11-18T23:26:49.327Z,97268.09
2022-11-18T23:29:17.590Z,97267.44
2022-11-18T23:31:45.639Z,97264.09
2022-11-18T23:34:15.358Z,97259.63
2022-11-18T23:36:42.697Z,97264.69
2022-11-18T23:39:10.640Z,97269.53
2022-11-18T23:41:38.716Z,97271.16
2022-11-18T23:44:06.531Z,97272.56
2022-11-18T23:46:34.776Z,97267.88
2022-11-18T23:49:02.284Z,97271.31
2022-11-18T23:51:29.527Z,97266.19
2022-11-18T23:53:58.128Z,97270.53
2022-11-18T23:56:27.923Z,97267.88
2022-11-18T23:58:56.836Z,97268.53
